createdAt,value
2016-02-02T00:00:49.156Z,0
2016-02-02T00:01:49.238Z,0
2016-02-02T00:02:49.256Z,0
2016-02-02T00:03:49.306Z,0
2016-02-02T00:04:49.372Z,0
2016-02-02T00:05:49.437Z,0
2016-02-02T00:06:49.471Z,0
2016-02-02T00:07:49.537Z,0
2016-02-02T00:08:49.601Z,0
2016-02-02T00:09:49.651Z,0
2016-02-02T00:10:49.685Z,0
2016-02-02T00:11:49.768Z,0
2016-02-02T00:12:49.803Z,0
2016-02-02T00:13:49.852Z,0
2016-02-02T00:14:49.934Z,0
2016-02-02T00:15:49.812Z,0
2016-02-02T00:16:50.018Z,0
2016-02-02T00:17:50.068Z,0
2016-02-02T00:18:50.163Z,0
2016-02-02T00:19:50.198Z,0
2016-02-02T00:20:50.250Z,0
2016-02-02T00:21:50.300Z,0
2016-02-02T00:22:50.368Z,0
2016-02-02T00:23:50.418Z,0
2016-02-02T00:24:50.482Z,0
2016-02-02T00:25:50.517Z,0
2016-02-02T00:26:50.566Z,0
2016-02-02T00:27:50.851Z,0
2016-02-02T00:28:50.683Z,0
2016-02-02T00:29:50.748Z,0
2016-02-02T00:30:50.798Z,0
2016-02-02T00:31:50.847Z,0
2016-02-02T00:32:50.898Z,0
2016-02-02T00:33:50.964Z,0
2016-02-02T00:34:51.013Z,0
2016-02-02T00:35:51.063Z,0
2016-02-02T00:36:51.129Z,0
2016-02-02T00:37:51.179Z,0
2016-02-02T00:38:51.228Z,0
2016-02-02T00:39:51.277Z,0
2016-02-02T00:40:51.343Z,0
2016-02-02T00:41:51.426Z,0
2016-02-02T00:42:51.459Z,0
2016-02-02T00:43:51.509Z,0
2016-02-02T00:44:51.559Z,0
2016-02-02T00:45:51.624Z,0
2016-02-02T00:46:51.674Z,0
2016-02-02T00:47:51.723Z,0
2016-02-02T00:48:51.774Z,0
2016-02-02T00:49:51.824Z,0
2016-02-02T00:50:51.888Z,0
2016-02-02T00:51:51.938Z,0
2016-02-02T00:52:52.004Z,0
2016-02-02T00:53:52.039Z,0
2016-02-02T00:54:52.103Z,0
2016-02-02T00:55:52.012Z,0
2016-02-02T00:56:52.218Z,0
2016-02-02T00:57:52.268Z,0
2016-02-02T00:58:52.350Z,0
2016-02-02T00:59:52.374Z,0
2016-02-02T01:00:52.440Z,0
2016-02-02T01:01:52.521Z,0
2016-02-02T01:02:52.539Z,0
2016-02-02T01:03:52.604Z,0
2016-02-02T01:04:52.669Z,0
2016-02-02T01:05:52.719Z,0
2016-02-02T01:06:52.769Z,0
2016-02-02T01:07:52.835Z,0
2016-02-02T01:08:52.916Z,0
2016-02-02T01:09:52.951Z,0
2016-02-02T01:10:52.984Z,0
2016-02-02T01:11:53.050Z,0
2016-02-02T01:12:53.099Z,0
2016-02-02T01:13:53.148Z,0
2016-02-02T01:14:53.229Z,0
2016-02-02T01:15:53.279Z,0
2016-02-02T01:16:53.345Z,0
2016-02-02T01:17:53.362Z,0
2016-02-02T01:18:53.429Z,0
2016-02-02T01:19:53.478Z,0
2016-02-02T01:20:53.543Z,0
2016-02-02T01:21:53.578Z,0
2016-02-02T01:22:53.642Z,0
2016-02-02T01:23:53.723Z,0
2016-02-02T01:24:53.757Z,0
2016-02-02T01:25:53.823Z,0
2016-02-02T01:26:53.872Z,0
2016-02-02T01:27:53.922Z,0
2016-02-02T01:28:53.965Z,0
2016-02-02T01:29:54.030Z,0
2016-02-02T01:30:54.098Z,0
2016-02-02T01:31:54.147Z,0
2016-02-02T01:32:54.197Z,0
2016-02-02T01:33:54.246Z,0
2016-02-02T01:34:54.297Z,0
2016-02-02T01:35:54.378Z,0
2016-02-02T01:36:54.413Z,0
2016-02-02T01:37:54.478Z,0
2016-02-02T01:38:54.527Z,0
2016-02-02T01:39:54.579Z,0
2016-02-02T01:40:54.644Z,0
2016-02-02T01:41:54.710Z,0
2016-02-02T01:42:54.759Z,0
2016-02-02T01:43:54.809Z,0
2016-02-02T01:44:54.859Z,0
2016-02-02T01:45:54.909Z,0
2016-02-02T01:46:54.974Z,0
2016-02-02T01:47:55.007Z,0
2016-02-02T01:48:55.076Z,0
2016-02-02T01:49:55.125Z,0
2016-02-02T01:50:55.178Z,0
2016-02-02T01:51:55.227Z,0
2016-02-02T01:52:55.293Z,0
2016-02-02T01:53:55.358Z,0
2016-02-02T01:54:55.407Z,0
2016-02-02T01:55:55.460Z,0
2016-02-02T01:56:55.509Z,0
2016-02-02T01:57:55.575Z,0
2016-02-02T01:58:55.624Z,0
2016-02-02T01:59:55.675Z,0
2016-02-02T02:00:55.741Z,0
2016-02-02T02:01:55.774Z,0
2016-02-02T02:02:55.840Z,0
2016-02-02T02:03:55.890Z,0
2016-02-02T02:04:55.942Z,0
2016-02-02T02:05:56.006Z,0
2016-02-02T02:06:56.072Z,0
2016-02-02T02:07:56.106Z,0
2016-02-02T02:08:56.156Z,0
2016-02-02T02:09:56.221Z,0
2016-02-02T02:10:56.286Z,0
2016-02-02T02:11:56.336Z,0
2016-02-02T02:12:56.229Z,0
2016-02-02T02:13:56.435Z,0
2016-02-02T02:14:56.501Z,0
2016-02-02T02:15:56.566Z,0
2016-02-02T02:16:56.623Z,0
2016-02-02T02:17:56.657Z,0
2016-02-02T02:18:56.722Z,0
2016-02-02T02:19:56.786Z,0
2016-02-02T02:20:56.821Z,0
2016-02-02T02:21:56.871Z,0
2016-02-02T02:22:56.953Z,0
2016-02-02T02:23:56.986Z,0
2016-02-02T02:24:57.021Z,0
2016-02-02T02:25:57.105Z,0
2016-02-02T02:26:57.170Z,0
2016-02-02T02:27:57.188Z,0
2016-02-02T02:28:57.269Z,0
2016-02-02T02:29:57.321Z,0
2016-02-02T02:30:57.354Z,0
2016-02-02T02:31:57.420Z,0
2016-02-02T02:32:57.485Z,0
2016-02-02T02:33:57.566Z,0
2016-02-02T02:34:57.584Z,0
2016-02-02T02:35:57.650Z,0
2016-02-02T02:36:57.699Z,0
2016-02-02T02:37:57.765Z,0
2016-02-02T02:38:57.814Z,0
2016-02-02T02:39:57.863Z,0
2016-02-02T02:40:57.944Z,0
2016-02-02T02:41:58.009Z,0
2016-02-02T02:42:57.857Z,0
2016-02-02T02:43:58.062Z,0
2016-02-02T02:44:58.144Z,0
2016-02-02T02:45:58.209Z,0
2016-02-02T02:46:58.229Z,0
2016-02-02T02:47:58.295Z,0
2016-02-02T02:48:58.376Z,0
2016-02-02T02:49:58.410Z,0
2016-02-02T02:50:58.459Z,0
2016-02-02T02:51:58.526Z,0
2016-02-02T02:52:58.560Z,0
2016-02-02T02:53:58.625Z,0
2016-02-02T02:54:58.674Z,0
2016-02-02T02:55:58.740Z,0
2016-02-02T02:56:58.793Z,0
2016-02-02T02:57:58.842Z,0
2016-02-02T02:58:58.882Z,0
2016-02-02T02:59:58.962Z,0
2016-02-02T03:00:59.012Z,0
2016-02-02T03:01:59.061Z,0
2016-02-02T03:02:59.110Z,0
2016-02-02T03:03:59.192Z,0
2016-02-02T03:04:59.214Z,0
2016-02-02T03:05:59.265Z,0
2016-02-02T03:06:59.346Z,0
2016-02-02T03:07:59.380Z,0
2016-02-02T03:08:59.445Z,0
2016-02-02T03:09:59.495Z,0
2016-02-02T03:10:59.560Z,0
2016-02-02T03:11:59.626Z,0
2016-02-02T03:12:59.661Z,0
2016-02-02T03:13:59.713Z,0
2016-02-02T03:14:59.780Z,0
2016-02-02T03:15:59.829Z,0
2016-02-02T03:16:59.894Z,0
2016-02-02T03:17:59.944Z,0
2016-02-02T03:18:59.994Z,0
2016-02-02T03:20:00.044Z,0
2016-02-02T03:21:00.094Z,0
2016-02-02T03:22:00.143Z,0
2016-02-02T03:23:00.209Z,0
2016-02-02T03:24:00.262Z,0
2016-02-02T03:25:00.312Z,0
2016-02-02T03:26:00.377Z,0
2016-02-02T03:27:00.442Z,0
2016-02-02T03:28:00.478Z,0
2016-02-02T03:29:00.530Z,0
2016-02-02T03:30:00.596Z,0
2016-02-02T03:31:00.669Z,0
2016-02-02T03:32:00.702Z,0
2016-02-02T03:33:00.752Z,0
2016-02-02T03:34:00.804Z,0
2016-02-02T03:35:00.854Z,0
2016-02-02T03:36:00.918Z,0
2016-02-02T03:37:00.984Z,0
2016-02-02T03:38:01.019Z,0
2016-02-02T03:39:01.694Z,0
2016-02-02T03:40:01.133Z,0
2016-02-02T03:41:01.213Z,0
2016-02-02T03:42:01.279Z,0
2016-02-02T03:43:01.312Z,0
2016-02-02T03:44:01.350Z,0
2016-02-02T03:45:01.389Z,0
2016-02-02T03:46:01.427Z,0
2016-02-02T03:47:01.481Z,0
2016-02-02T03:48:01.521Z,0
2016-02-02T03:49:01.582Z,0
2016-02-02T03:50:01.615Z,0
2016-02-02T03:51:01.660Z,0
2016-02-02T03:52:01.753Z,0
2016-02-02T03:53:01.783Z,0
2016-02-02T03:54:01.831Z,0
2016-02-02T03:55:01.880Z,0
2016-02-02T03:56:01.959Z,0
2016-02-02T03:57:01.976Z,0
2016-02-02T03:58:02.056Z,0
2016-02-02T03:59:02.122Z,0
2016-02-02T04:00:02.155Z,0
2016-02-02T04:01:02.203Z,0
2016-02-02T04:02:02.252Z,0
2016-02-02T04:03:02.317Z,0
2016-02-02T04:04:02.370Z,0
2016-02-02T04:05:02.420Z,0
2016-02-02T04:06:02.485Z,0
2016-02-02T04:07:02.520Z,0
2016-02-02T04:08:02.413Z,0
2016-02-02T04:09:02.650Z,0
2016-02-02T04:10:02.699Z,0
2016-02-02T04:11:02.750Z,0
2016-02-02T04:12:02.800Z,0
2016-02-02T04:13:02.849Z,0
2016-02-02T04:14:02.930Z,0
2016-02-02T04:15:02.964Z,0
2016-02-02T04:16:03.015Z,0
2016-02-02T04:17:03.092Z,0
2016-02-02T04:18:03.127Z,0
2016-02-02T04:19:03.192Z,0
2016-02-02T04:20:03.259Z,0
2016-02-02T04:21:03.292Z,0
2016-02-02T04:22:03.356Z,0
2016-02-02T04:23:03.391Z,0
2016-02-02T04:24:03.457Z,0
2016-02-02T04:25:03.507Z,0
2016-02-02T04:26:03.571Z,0
2016-02-02T04:27:03.607Z,0
2016-02-02T04:28:03.672Z,0
2016-02-02T04:29:03.847Z,0
2016-02-02T04:30:03.772Z,0
2016-02-02T04:31:03.837Z,0
2016-02-02T04:32:03.904Z,0
2016-02-02T04:33:03.968Z,0
2016-02-02T04:34:03.987Z,0
2016-02-02T04:35:05.552Z,0
2016-02-02T04:36:06.554Z,0
2016-02-02T04:37:07.058Z,0
2016-02-02T04:38:06.577Z,0
2016-02-02T04:39:06.704Z,0
2016-02-02T04:40:06.223Z,0
2016-02-02T04:41:05.929Z,0
2016-02-02T04:42:07.433Z,0
2016-02-02T04:43:07.279Z,0
2016-02-02T04:44:06.797Z,0
2016-02-02T04:45:04.613Z,0
2016-02-02T04:46:04.662Z,0
2016-02-02T04:47:04.727Z,0
2016-02-02T04:48:06.292Z,0
2016-02-02T04:49:07.421Z,0
2016-02-02T04:50:06.969Z,0
2016-02-02T04:51:06.207Z,0
2016-02-02T04:52:05.647Z,0
2016-02-02T04:53:06.072Z,0
2016-02-02T04:54:05.106Z,0
2016-02-02T04:55:05.140Z,0
2016-02-02T04:56:05.205Z,0
2016-02-02T04:57:05.255Z,0
2016-02-02T04:58:05.321Z,0
2016-02-02T04:59:05.386Z,0
2016-02-02T05:00:05.405Z,0
2016-02-02T05:01:05.472Z,0
2016-02-02T05:02:05.537Z,0
2016-02-02T05:03:05.602Z,0
2016-02-02T05:04:05.635Z,0
2016-02-02T05:05:05.702Z,0
2016-02-02T05:06:05.735Z,0
2016-02-02T05:07:05.802Z,0
2016-02-02T05:08:05.711Z,0
2016-02-02T05:09:05.948Z,0
2016-02-02T05:10:05.950Z,0
2016-02-02T05:11:06.016Z,0
2016-02-02T05:12:06.084Z,0
2016-02-02T05:13:06.117Z,0
2016-02-02T05:14:06.171Z,0
2016-02-02T05:15:06.236Z,0
2016-02-02T05:16:06.286Z,0
2016-02-02T05:17:06.367Z,0
2016-02-02T05:18:06.401Z,0
2016-02-02T05:19:06.450Z,0
2016-02-02T05:20:06.342Z,0
2016-02-02T05:21:06.580Z,0
2016-02-02T05:22:06.631Z,0
2016-02-02T05:23:06.665Z,0
2016-02-02T05:24:06.714Z,0
2016-02-02T05:25:06.779Z,0
2016-02-02T05:26:06.860Z,0
2016-02-02T05:27:06.895Z,0
2016-02-02T05:28:06.976Z,0
2016-02-02T05:29:06.994Z,0
2016-02-02T05:30:07.050Z,0
2016-02-02T05:31:07.130Z,0
2016-02-02T05:32:07.164Z,0
2016-02-02T05:33:07.229Z,0
2016-02-02T05:34:07.295Z,0
2016-02-02T05:35:07.313Z,0
2016-02-02T05:36:07.379Z,0
2016-02-02T05:37:07.428Z,0
2016-02-02T05:38:07.510Z,0
2016-02-02T05:39:07.543Z,0
2016-02-02T05:40:07.590Z,0
2016-02-02T05:41:07.654Z,0
2016-02-02T05:42:07.720Z,0
2016-02-02T05:43:07.738Z,0
2016-02-02T05:44:07.808Z,0
2016-02-02T05:45:07.889Z,0
2016-02-02T05:46:07.938Z,0
2016-02-02T05:47:07.972Z,0
2016-02-02T05:48:08.053Z,0
2016-02-02T05:49:08.102Z,0
2016-02-02T05:50:08.137Z,0
2016-02-02T05:51:08.186Z,0
2016-02-02T05:52:08.252Z,0
2016-02-02T05:53:08.317Z,0
2016-02-02T05:54:08.352Z,0
2016-02-02T05:55:08.245Z,0
2016-02-02T05:56:08.467Z,0
2016-02-02T05:57:08.547Z,0
2016-02-02T05:58:08.566Z,0
2016-02-02T05:59:08.631Z,0
2016-02-02T06:00:08.727Z,0
2016-02-02T06:01:08.759Z,0
2016-02-02T06:02:08.809Z,0
2016-02-02T06:03:08.860Z,0
2016-02-02T06:04:08.940Z,0
2016-02-02T06:05:08.959Z,0
2016-02-02T06:06:09.007Z,0
2016-02-02T06:07:09.090Z,0
2016-02-02T06:08:09.154Z,0
2016-02-02T06:09:09.220Z,0
2016-02-02T06:10:09.223Z,0
2016-02-02T06:11:09.272Z,0
2016-02-02T06:12:09.369Z,0
2016-02-02T06:13:09.387Z,0
2016-02-02T06:14:09.452Z,0
2016-02-02T06:15:09.505Z,0
2016-02-02T06:16:09.632Z,0
2016-02-02T06:17:09.604Z,0
2016-02-02T06:18:09.654Z,0
2016-02-02T06:19:09.736Z,0
2016-02-02T06:20:09.771Z,0
2016-02-02T06:21:09.820Z,0
2016-02-02T06:22:09.901Z,0
2016-02-02T06:23:09.951Z,0
2016-02-02T06:24:09.985Z,0
2016-02-02T06:25:10.051Z,0
2016-02-02T06:26:10.166Z,0
2016-02-02T06:27:10.153Z,0
2016-02-02T06:28:10.203Z,0
2016-02-02T06:29:10.283Z,0
2016-02-02T06:30:10.333Z,0
2016-02-02T06:31:10.407Z,0
2016-02-02T06:32:10.443Z,0
2016-02-02T06:33:10.476Z,0
2016-02-02T06:34:10.526Z,0
2016-02-02T06:35:10.590Z,0
2016-02-02T06:36:10.657Z,0
2016-02-02T06:37:10.707Z,0
2016-02-02T06:38:10.741Z,0
2016-02-02T06:39:10.790Z,0
2016-02-02T06:40:10.855Z,0
2016-02-02T06:41:10.905Z,0
2016-02-02T06:42:10.970Z,0
2016-02-02T06:43:11.020Z,0
2016-02-02T06:44:11.085Z,0
2016-02-02T06:45:11.151Z,0
2016-02-02T06:46:11.168Z,0
2016-02-02T06:47:11.218Z,0
2016-02-02T06:48:11.283Z,0
2016-02-02T06:49:11.349Z,4
2016-02-02T06:50:11.414Z,4
2016-02-02T06:51:11.447Z,4
2016-02-02T06:52:11.498Z,4
2016-02-02T06:53:11.580Z,4
2016-02-02T06:54:11.629Z,4
2016-02-02T06:55:11.662Z,4
2016-02-02T06:56:11.727Z,4
2016-02-02T06:57:11.794Z,4
2016-02-02T06:58:11.845Z,8
2016-02-02T06:59:11.878Z,8
2016-02-02T07:00:11.943Z,8
2016-02-02T07:01:11.996Z,4
2016-02-02T07:02:12.045Z,4
2016-02-02T07:03:12.111Z,4
2016-02-02T07:04:12.159Z,4
2016-02-02T07:05:12.241Z,4
2016-02-02T07:06:12.259Z,4
2016-02-02T07:07:12.309Z,4
2016-02-02T07:08:12.375Z,4
2016-02-02T07:09:12.441Z,4
2016-02-02T07:10:12.474Z,4
2016-02-02T07:11:12.540Z,4
2016-02-02T07:12:12.604Z,4
2016-02-02T07:13:12.643Z,4
2016-02-02T07:14:12.725Z,4
2016-02-02T07:15:12.758Z,4
2016-02-02T07:16:12.792Z,4
2016-02-02T07:17:12.857Z,4
2016-02-02T07:18:12.924Z,8
2016-02-02T07:19:12.989Z,4
2016-02-02T07:20:13.054Z,4
2016-02-02T07:21:13.077Z,8
2016-02-02T07:22:13.127Z,4
2016-02-02T07:23:13.208Z,4
2016-02-02T07:24:13.257Z,8
2016-02-02T07:25:13.291Z,4
2016-02-02T07:26:13.386Z,8
2016-02-02T07:27:13.402Z,8
2016-02-02T07:28:13.452Z,12
2016-02-02T07:29:13.534Z,4
2016-02-02T07:30:13.567Z,8
2016-02-02T07:31:13.640Z,8
2016-02-02T07:32:13.907Z,8
2016-02-02T07:33:17.277Z,8
2016-02-02T07:34:23.687Z,8
2016-02-02T07:35:14.306Z,8
2016-02-02T07:36:13.887Z,8
2016-02-02T07:37:14.061Z,4
2016-02-02T07:38:13.986Z,8
2016-02-02T07:39:14.036Z,8
2016-02-02T07:40:14.154Z,8
2016-02-02T07:41:14.157Z,8
2016-02-02T07:42:14.222Z,8
2016-02-02T07:43:14.272Z,8
2016-02-02T07:44:14.322Z,12
2016-02-02T07:45:14.355Z,8
2016-02-02T07:46:14.437Z,8
2016-02-02T07:47:14.470Z,8
2016-02-02T07:48:14.522Z,12
2016-02-02T07:49:14.587Z,8
2016-02-02T07:50:14.639Z,12
2016-02-02T07:51:14.690Z,12
2016-02-02T07:52:14.739Z,12
2016-02-02T07:53:14.789Z,16
2016-02-02T07:54:14.869Z,16
2016-02-02T07:55:14.892Z,16
2016-02-02T07:56:14.972Z,16
2016-02-02T07:57:15.007Z,16
2016-02-02T07:58:15.072Z,20
2016-02-02T07:59:15.139Z,12
2016-02-02T08:00:15.173Z,16
2016-02-02T08:01:15.223Z,12
2016-02-02T08:02:15.304Z,12
2016-02-02T08:03:15.338Z,12
2016-02-02T08:04:15.131Z,20
2016-02-02T08:05:15.450Z,16
2016-02-02T08:06:15.515Z,20
2016-02-02T08:07:15.552Z,28
2016-02-02T08:08:15.632Z,32
2016-02-02T08:09:15.681Z,28
2016-02-02T08:10:15.715Z,32
2016-02-02T08:11:15.765Z,36
2016-02-02T08:12:15.831Z,36
2016-02-02T08:13:15.864Z,40
2016-02-02T08:14:15.922Z,40
2016-02-02T08:15:15.991Z,36
2016-02-02T08:16:16.026Z,28
2016-02-02T08:17:16.076Z,32
2016-02-02T08:18:16.142Z,32
2016-02-02T08:19:16.206Z,28
2016-02-02T08:20:16.240Z,24
2016-02-02T08:21:16.293Z,32
2016-02-02T08:22:16.374Z,28
2016-02-02T08:23:16.408Z,20
2016-02-02T08:24:16.473Z,12
2016-02-02T08:25:16.507Z,12
2016-02-02T08:26:16.589Z,12
2016-02-02T08:27:16.623Z,12
2016-02-02T08:28:16.690Z,16
2016-02-02T08:29:16.723Z,20
2016-02-02T08:30:16.824Z,28
2016-02-02T08:31:16.843Z,28
2016-02-02T08:32:16.907Z,32
2016-02-02T08:33:16.941Z,24
2016-02-02T08:34:17.007Z,20
2016-02-02T08:35:17.057Z,24
2016-02-02T08:36:17.137Z,20
2016-02-02T08:37:17.171Z,24
2016-02-02T08:38:17.237Z,20
2016-02-02T08:39:17.255Z,16
2016-02-02T08:40:17.320Z,20
2016-02-02T08:41:17.385Z,16
2016-02-02T08:42:17.421Z,20
2016-02-02T08:43:17.501Z,16
2016-02-02T08:44:17.551Z,12
2016-02-02T08:45:17.600Z,12
2016-02-02T08:46:17.634Z,16
2016-02-02T08:47:17.546Z,16
2016-02-02T08:48:17.752Z,16
2016-02-02T08:49:17.801Z,16
2016-02-02T08:50:17.851Z,24
2016-02-02T08:51:17.949Z,24
2016-02-02T08:52:17.968Z,28
2016-02-02T08:53:18.017Z,24
2016-02-02T08:54:18.097Z,20
2016-02-02T08:55:18.164Z,20
2016-02-02T08:56:18.185Z,32
2016-02-02T08:57:18.235Z,36
2016-02-02T08:58:18.291Z,28
2016-02-02T08:59:18.341Z,24
2016-02-02T09:00:18.390Z,20
2016-02-02T09:01:18.472Z,20
2016-02-02T09:02:18.505Z,16
2016-02-02T09:03:18.556Z,20
2016-02-02T09:04:18.636Z,20
2016-02-02T09:05:18.671Z,20
2016-02-02T09:06:18.736Z,20
2016-02-02T09:07:18.770Z,20
2016-02-02T09:08:18.823Z,20
2016-02-02T09:09:18.872Z,16
2016-02-02T09:10:18.985Z,20
2016-02-02T09:11:18.972Z,16
2016-02-02T09:12:19.054Z,16
2016-02-02T09:13:19.089Z,16
2016-02-02T09:14:19.155Z,16
2016-02-02T09:15:19.204Z,8
2016-02-02T09:16:19.238Z,8
2016-02-02T09:17:19.320Z,12
2016-02-02T09:18:19.369Z,8
2016-02-02T09:19:19.450Z,12
2016-02-02T09:20:19.459Z,12
2016-02-02T09:21:19.508Z,12
2016-02-02T09:22:19.589Z,16
2016-02-02T09:23:19.607Z,12
2016-02-02T09:24:19.689Z,16
2016-02-02T09:25:19.769Z,16
2016-02-02T09:26:19.788Z,20
2016-02-02T09:27:19.872Z,16
2016-02-02T09:28:19.905Z,16
2016-02-02T09:29:19.939Z,20
2016-02-02T09:30:20.083Z,16
2016-02-02T09:31:20.054Z,20
2016-02-02T09:32:20.119Z,16
2016-02-02T09:33:20.199Z,20
2016-02-02T09:34:20.219Z,16
2016-02-02T09:35:20.269Z,20
2016-02-02T09:36:20.350Z,16
2016-02-02T09:37:20.384Z,20
2016-02-02T09:38:20.434Z,16
2016-02-02T09:39:20.484Z,16
2016-02-02T09:40:20.548Z,20
2016-02-02T09:41:20.598Z,20
2016-02-02T09:42:20.632Z,20
2016-02-02T09:43:20.713Z,20
2016-02-02T09:44:20.778Z,20
2016-02-02T09:45:20.828Z,24
2016-02-02T09:46:20.096Z,20
2016-02-02T09:47:20.911Z,20
2016-02-02T09:48:20.976Z,24
2016-02-02T09:49:21.010Z,24
2016-02-02T09:50:21.094Z,24
2016-02-02T09:51:21.127Z,24
2016-02-02T09:52:21.208Z,28
2016-02-02T09:53:21.241Z,24
2016-02-02T09:54:21.307Z,28
2016-02-02T09:55:21.341Z,28
2016-02-02T09:56:21.412Z,28
2016-02-02T09:57:21.445Z,28
2016-02-02T09:58:21.494Z,20
2016-02-02T09:59:21.591Z,20
2016-02-02T10:00:21.610Z,20
2016-02-02T10:01:21.659Z,20
2016-02-02T10:02:21.713Z,20
2016-02-02T10:03:21.794Z,24
2016-02-02T10:04:21.812Z,20
2016-02-02T10:05:21.878Z,24
2016-02-02T10:06:21.958Z,20
2016-02-02T10:07:21.977Z,20
2016-02-02T10:08:21.745Z,24
2016-02-02T10:09:22.077Z,20
2016-02-02T10:10:22.142Z,20
2016-02-02T10:11:22.239Z,20
2016-02-02T10:12:22.241Z,24
2016-02-02T10:13:22.307Z,28
2016-02-02T10:14:22.200Z,32
2016-02-02T10:15:22.421Z,32
2016-02-02T10:16:22.470Z,32
2016-02-02T10:17:22.520Z,36
2016-02-02T10:18:22.586Z,36
2016-02-02T10:19:22.635Z,36
2016-02-02T10:20:22.669Z,36
2016-02-02T10:21:22.749Z,36
2016-02-02T10:22:22.783Z,32
2016-02-02T10:23:22.864Z,32
2016-02-02T10:24:22.946Z,36
2016-02-02T10:25:22.948Z,44
2016-02-02T10:26:23.017Z,44
2016-02-02T10:27:23.051Z,40
2016-02-02T10:28:23.117Z,32
2016-02-02T10:29:23.181Z,28
2016-02-02T10:30:23.215Z,28
2016-02-02T10:31:23.281Z,28
2016-02-02T10:32:23.334Z,28
2016-02-02T10:33:23.414Z,28
2016-02-02T10:34:23.447Z,24
2016-02-02T10:35:23.477Z,20
2016-02-02T10:36:23.543Z,24
2016-02-02T10:37:23.593Z,28
2016-02-02T10:38:23.642Z,24
2016-02-02T10:39:23.694Z,20
2016-02-02T10:40:23.774Z,20
2016-02-02T10:41:23.808Z,16
2016-02-02T10:42:23.872Z,20
2016-02-02T10:43:23.907Z,20
2016-02-02T10:44:23.972Z,16
2016-02-02T10:45:24.006Z,16
2016-02-02T10:46:24.541Z,16
2016-02-02T10:47:24.136Z,20
2016-02-02T10:48:24.202Z,20
2016-02-02T10:49:24.237Z,24
2016-02-02T10:50:24.286Z,24
2016-02-02T10:51:24.366Z,16
2016-02-02T10:52:24.385Z,16
2016-02-02T10:53:24.450Z,20
2016-02-02T10:54:24.500Z,16
2016-02-02T10:55:24.565Z,20
2016-02-02T10:56:24.615Z,20
2016-02-02T10:57:24.668Z,16
2016-02-02T10:58:24.720Z,16
2016-02-02T10:59:24.800Z,12
2016-02-02T11:00:24.803Z,12
2016-02-02T11:01:24.869Z,16
2016-02-02T11:02:24.933Z,20
2016-02-02T11:03:24.999Z,24
2016-02-02T11:04:25.033Z,24
2016-02-02T11:05:25.082Z,24
2016-02-02T11:06:25.163Z,24
2016-02-02T11:07:25.196Z,20
2016-02-02T11:08:25.247Z,16
2016-02-02T11:09:25.312Z,16
2016-02-02T11:10:25.351Z,16
2016-02-02T11:11:25.415Z,16
2016-02-02T11:12:25.465Z,12
2016-02-02T11:13:25.546Z,12
2016-02-02T11:14:25.565Z,12
2016-02-02T11:15:25.630Z,12
2016-02-02T11:16:25.664Z,12
2016-02-02T11:17:25.716Z,12
2016-02-02T11:18:25.811Z,16
2016-02-02T11:19:25.846Z,16
2016-02-02T11:20:25.879Z,16
2016-02-02T11:21:25.929Z,16
2016-02-02T11:22:26.013Z,20
2016-02-02T11:23:26.063Z,20
2016-02-02T11:24:26.096Z,20
2016-02-02T11:25:26.161Z,20
2016-02-02T11:26:26.212Z,24
2016-02-02T11:27:26.262Z,24
2016-02-02T11:28:26.318Z,20
2016-02-02T11:29:26.382Z,24
2016-02-02T11:30:26.449Z,24
2016-02-02T11:31:26.482Z,24
2016-02-02T11:32:26.532Z,20
2016-02-02T11:33:26.614Z,12
2016-02-02T11:34:26.648Z,12
2016-02-02T11:35:26.697Z,12
2016-02-02T11:36:26.764Z,12
2016-02-02T11:37:26.828Z,12
2016-02-02T11:38:26.877Z,12
2016-02-02T11:39:26.942Z,12
2016-02-02T11:40:27.010Z,12
2016-02-02T11:41:27.013Z,8
2016-02-02T11:42:27.078Z,12
2016-02-02T11:43:27.127Z,8
2016-02-02T11:44:27.193Z,8
2016-02-02T11:45:27.262Z,8
2016-02-02T11:46:27.280Z,8
2016-02-02T11:47:27.346Z,8
2016-02-02T11:48:27.381Z,12
2016-02-02T11:49:27.446Z,8
2016-02-02T11:50:27.511Z,8
2016-02-02T11:51:27.545Z,8
2016-02-02T11:52:27.609Z,8
2016-02-02T11:53:27.660Z,8
2016-02-02T11:54:27.693Z,8
2016-02-02T11:55:27.774Z,8
2016-02-02T11:56:27.808Z,4
2016-02-02T11:57:27.873Z,8
2016-02-02T11:58:27.925Z,8
2016-02-02T11:59:27.992Z,8
2016-02-02T12:00:28.025Z,8
2016-02-02T12:01:28.090Z,4
2016-02-02T12:02:28.155Z,4
2016-02-02T12:03:28.189Z,4
2016-02-02T12:04:28.243Z,8
2016-02-02T12:05:28.323Z,4
2016-02-02T12:06:28.343Z,8
2016-02-02T12:07:28.392Z,8
2016-02-02T12:08:28.474Z,4
2016-02-02T12:09:28.507Z,4
2016-02-02T12:10:28.557Z,4
2016-02-02T12:11:28.608Z,4
2016-02-02T12:12:28.719Z,4
2016-02-02T12:13:28.722Z,8
2016-02-02T12:14:28.786Z,8
2016-02-02T12:15:28.836Z,8
2016-02-02T12:16:28.887Z,4
2016-02-02T12:17:28.967Z,8
2016-02-02T12:18:28.986Z,4
2016-02-02T12:19:29.035Z,4
2016-02-02T12:20:29.099Z,4
2016-02-02T12:21:29.150Z,4
2016-02-02T12:22:29.215Z,4
2016-02-02T12:23:29.266Z,4
2016-02-02T12:24:29.314Z,4
2016-02-02T12:25:29.396Z,4
2016-02-02T12:26:29.430Z,4
2016-02-02T12:27:29.480Z,4
2016-02-02T12:28:29.529Z,8
2016-02-02T12:29:29.575Z,4
2016-02-02T12:30:29.639Z,4
2016-02-02T12:31:29.705Z,4
2016-02-02T12:32:29.597Z,4
2016-02-02T12:33:29.787Z,4
2016-02-02T12:34:29.853Z,4
2016-02-02T12:35:29.903Z,8
2016-02-02T12:36:29.968Z,8
2016-02-02T12:37:30.016Z,4
2016-02-02T12:38:30.066Z,4
2016-02-02T12:39:30.147Z,4
2016-02-02T12:40:30.166Z,4
2016-02-02T12:41:30.216Z,4
2016-02-02T12:42:30.298Z,4
2016-02-02T12:43:30.316Z,0
2016-02-02T12:44:30.382Z,4
2016-02-02T12:45:30.462Z,4
2016-02-02T12:46:30.497Z,4
2016-02-02T12:47:30.530Z,4
2016-02-02T12:48:30.627Z,4
2016-02-02T12:49:30.638Z,4
2016-02-02T12:50:30.692Z,4
2016-02-02T12:51:30.716Z,4
2016-02-02T12:52:30.786Z,4
2016-02-02T12:53:30.857Z,4
2016-02-02T12:54:30.854Z,4
2016-02-02T12:55:30.915Z,4
2016-02-02T12:56:30.961Z,4
2016-02-02T12:57:31.038Z,0
2016-02-02T12:58:31.068Z,4
2016-02-02T12:59:31.116Z,4
2016-02-02T13:00:31.169Z,4
2016-02-02T13:01:31.203Z,4
2016-02-02T13:02:31.329Z,4
2016-02-02T13:03:31.362Z,4
2016-02-02T13:04:31.381Z,4
2016-02-02T13:05:31.414Z,4
2016-02-02T13:06:31.494Z,4
2016-02-02T13:07:31.372Z,4
2016-02-02T13:08:31.608Z,4
2016-02-02T13:09:31.642Z,4
2016-02-02T13:10:31.707Z,4
2016-02-02T13:11:31.772Z,4
2016-02-02T13:12:31.793Z,4
2016-02-02T13:13:31.842Z,8
2016-02-02T13:14:31.954Z,4
2016-02-02T13:15:31.957Z,4
2016-02-02T13:16:32.023Z,4
2016-02-02T13:17:32.073Z,4
2016-02-02T13:18:32.122Z,4
2016-02-02T13:19:32.191Z,4
2016-02-02T13:20:32.225Z,4
2016-02-02T13:21:32.290Z,4
2016-02-02T13:22:32.355Z,4
2016-02-02T13:23:32.389Z,4
2016-02-02T13:24:32.441Z,4
2016-02-02T13:25:32.522Z,4
2016-02-02T13:26:32.557Z,4
2016-02-02T13:27:32.607Z,8
2016-02-02T13:28:32.702Z,4
2016-02-02T13:29:32.582Z,8
2016-02-02T13:30:32.787Z,8
2016-02-02T13:31:32.838Z,4
2016-02-02T13:32:32.873Z,4
2016-02-02T13:33:32.937Z,8
2016-02-02T13:34:33.004Z,4
2016-02-02T13:35:33.037Z,8
2016-02-02T13:36:33.102Z,4
2016-02-02T13:37:33.136Z,4
2016-02-02T13:38:33.202Z,4
2016-02-02T13:39:33.267Z,4
2016-02-02T13:40:33.316Z,4
2016-02-02T13:41:33.351Z,0
2016-02-02T13:42:33.431Z,0
2016-02-02T13:43:33.497Z,0
2016-02-02T13:44:33.531Z,0
2016-02-02T13:45:33.581Z,0
2016-02-02T13:46:33.646Z,4
2016-02-02T13:47:33.696Z,4
2016-02-02T13:48:33.746Z,4
2016-02-02T13:49:33.826Z,0
2016-02-02T13:50:33.847Z,0
2016-02-02T13:51:33.913Z,0
2016-02-02T13:52:33.946Z,0
2016-02-02T13:53:34.027Z,0
2016-02-02T13:54:34.077Z,0
2016-02-02T13:55:34.111Z,0
2016-02-02T13:56:34.162Z,4
2016-02-02T13:57:34.242Z,4
2016-02-02T13:58:34.282Z,4
2016-02-02T13:59:34.348Z,4
2016-02-02T14:00:34.381Z,4
2016-02-02T14:01:34.478Z,4
2016-02-02T14:02:34.501Z,4
2016-02-02T14:03:34.566Z,0
2016-02-02T14:04:34.616Z,4
2016-02-02T14:05:34.666Z,4
2016-02-02T14:06:34.714Z,4
2016-02-02T14:07:34.764Z,0
2016-02-02T14:08:34.829Z,0
2016-02-02T14:09:34.879Z,0
2016-02-02T14:10:34.929Z,0
2016-02-02T14:11:34.978Z,0
2016-02-02T14:12:35.060Z,4
2016-02-02T14:13:35.156Z,4
2016-02-02T14:14:35.144Z,4
2016-02-02T14:15:35.239Z,4
2016-02-02T14:16:35.306Z,4
2016-02-02T14:17:35.324Z,4
2016-02-02T14:18:35.405Z,4
2016-02-02T14:19:35.705Z,4
2016-02-02T14:20:35.474Z,0
2016-02-02T14:21:35.571Z,4
2016-02-02T14:22:35.620Z,4
2016-02-02T14:23:35.732Z,4
2016-02-02T14:24:35.750Z,4
2016-02-02T14:25:35.737Z,4
2016-02-02T14:26:35.818Z,4
2016-02-02T14:27:35.868Z,4
2016-02-02T14:28:35.949Z,4
2016-02-02T14:29:35.969Z,4
2016-02-02T14:30:36.034Z,4
2016-02-02T14:31:36.068Z,0
2016-02-02T14:32:36.120Z,0
2016-02-02T14:33:36.202Z,0
2016-02-02T14:34:36.236Z,0
2016-02-02T14:35:36.286Z,0
2016-02-02T14:36:36.350Z,4
2016-02-02T14:37:36.400Z,4
2016-02-02T14:38:36.465Z,4
2016-02-02T14:39:36.500Z,4